Calico Basin, Nevada
Current Conditions -  °F | °C
As of 7:56 AM on Wednesday 26 Nov 2014 (Local Time) from KHND Reporting Station
Clear Clear  
Wind Chill: 43°   Ceiling: Unl
Heat Index: 46°   Visibility: 10mi
Dew Point: 12°   Wind: 6mph
Humidity: 25%   Direction: 160°SSE
Pressure: 30.43"   Gusts: NA
Location:  35.8437°N, 115.134°W
Report Text: KHND 261556Z 16005KT 10SM CLR 08/M11 A3043 RMK AO2 T00771111 SLP312
Loading
Personal Weather Stations






























Interactive Weather Map New forecast layout! Learn more

10-Day Weather Forecast

Advertisements
Track Severe Weather on mobile